Time;durP1;ratioP1;P1;durP2;ratioP2;P2;SDS_P1;SDS_P2;PMS_P1;PMS_P2;Temp;Humidity;BMP_temperature;BMP_pressure;BME280_temperature;BME280_humidity;BME280_pressure;Samples;Min_cycle;Max_cycle;Signal;HPM_P1;HPM_P2
2022/03/01 00:00:06;;;;;;;;;;;9.90;88.70;;;;;;5080246;28;19909;-76
2022/03/01 00:02:31;;;;;;;;;;;9.90;88.50;;;;;;5080073;28;19908;-76
2022/03/01 00:04:57;;;;;;;;;;;9.90;88.10;;;;;;5077421;28;19939;-76
2022/03/01 00:07:22;;;;;;;;;;;9.90;88.00;;;;;;5066818;28;20355;-76
2022/03/01 00:09:48;;;;;;;;;;;9.90;87.60;;;;;;5079875;28;19909;-76
2022/03/01 00:12:14;;;;;;;;;;;9.90;87.50;;;;;;5079671;28;20047;-76
2022/03/01 00:14:40;;;;;;;;;;;9.90;87.60;;;;;;5079844;28;19958;-76
2022/03/01 00:17:05;;;;;;;;;;;9.90;87.80;;;;;;5080116;28;19915;-76
2022/03/01 00:19:31;;;;;;;;;;;10.00;88.30;;;;;;5079774;28;19952;-76
2022/03/01 00:21:57;;;;;;;;;;;9.90;88.40;;;;;;5079834;28;19909;-76
2022/03/01 00:24:23;;;;;;;;;;;9.90;88.40;;;;;;5077661;28;19966;-76
2022/03/01 00:26:48;;;;;;;;;;;9.90;88.30;;;;;;5079637;28;19908;-76
2022/03/01 00:29:14;;;;;;;;;;;9.90;88.70;;;;;;5079373;28;20271;-76
2022/03/01 00:31:40;;;;;;;;;;;9.90;88.90;;;;;;5079839;28;20280;-76
2022/03/01 00:34:06;;;;;;;;;;;9.90;89.00;;;;;;5079418;28;19912;-77
2022/03/01 00:36:32;;;;;;;;;;;9.90;88.70;;;;;;5079535;28;20379;-76
2022/03/01 00:38:57;;;;;;;;;;;9.90;88.30;;;;;;5079180;28;19913;-77
2022/03/01 00:41:23;;;;;;;;;;;9.90;88.00;;;;;;5061449;28;19912;-77
2022/03/01 00:43:49;;;;;;;;;;;9.90;87.70;;;;;;5077271;28;19916;-76
2022/03/01 00:46:14;;;;;;;;;;;9.90;87.70;;;;;;5066124;28;20003;-76
2022/03/01 00:48:40;;;;;;;;;;;9.90;87.50;;;;;;5079150;28;19952;-76
2022/03/01 00:51:06;;;;;;;;;;;9.90;87.40;;;;;;5078904;28;19951;-76
2022/03/01 00:53:31;;;;;;;;;;;9.90;87.20;;;;;;5067417;28;19912;-77
2022/03/01 00:55:57;;;;;;;;;;;9.90;87.20;;;;;;5079005;28;19908;-77
2022/03/01 00:58:23;;;;;;;;;;;9.90;87.10;;;;;;5079356;28;19970;-77
2022/03/01 01:00:48;;;;;;;;;;;9.90;87.00;;;;;;5078717;28;19959;-76
2022/03/01 01:03:14;;;;;;;;;;;9.90;87.00;;;;;;5077021;28;20306;-76
2022/03/01 01:05:39;;;;;;;;;;;9.90;86.90;;;;;;5078313;28;20298;-76
2022/03/01 01:08:05;;;;;;;;;;;10.00;86.90;;;;;;5078948;28;19908;-76
2022/03/01 01:10:31;;;;;;;;;;;10.00;87.00;;;;;;5078413;28;20385;-76
2022/03/01 01:12:57;;;;;;;;;;;10.00;87.00;;;;;;5078595;28;20333;-76
2022/03/01 01:15:22;;;;;;;;;;;10.00;87.10;;;;;;5060700;28;19912;-76
2022/03/01 01:17:48;;;;;;;;;;;10.00;87.30;;;;;;5079027;28;19913;-76
2022/03/01 01:20:14;;;;;;;;;;;10.00;88.10;;;;;;5078341;28;20345;-77
2022/03/01 01:22:40;;;;;;;;;;;10.00;88.10;;;;;;5077506;28;19948;-76
2022/03/01 01:25:26;;;;;;;;;;;10.00;88.20;;;;;;5077710;28;20360;-76
2022/03/01 01:27:53;;;;;;;;;;;10.00;88.00;;;;;;5077781;28;19955;-76
2022/03/01 01:30:20;;;;;;;;;;;9.90;87.80;;;;;;5078537;28;20371;-76
2022/03/01 01:32:49;;;;;;;;;;;9.90;87.70;;;;;;5077712;28;19912;-76
2022/03/01 01:35:16;;;;;;;;;;;9.90;87.70;;;;;;5078231;28;19916;-76
2022/03/01 01:37:42;;;;;;;;;;;9.90;87.70;;;;;;5078208;28;19908;-76
2022/03/01 01:40:10;;;;;;;;;;;9.90;87.90;;;;;;5077549;28;20371;-76
2022/03/01 01:42:36;;;;;;;;;;;9.90;87.90;;;;;;5077207;28;19908;-76
2022/03/01 01:45:03;;;;;;;;;;;9.90;87.90;;;;;;5068245;28;20023;-76
2022/03/01 01:47:28;;;;;;;;;;;9.90;88.10;;;;;;5073184;28;19908;-76
2022/03/01 01:49:54;;;;;;;;;;;9.90;88.20;;;;;;5078247;28;19908;-76
2022/03/01 01:52:20;;;;;;;;;;;9.90;88.50;;;;;;5077353;28;19913;-76
2022/03/01 01:54:46;;;;;;;;;;;9.90;88.80;;;;;;5077915;28;20003;-76
2022/03/01 01:57:15;;;;;;;;;;;9.90;88.90;;;;;;5077985;28;19908;-76
2022/03/01 01:59:41;;;;;;;;;;;9.90;88.70;;;;;;5078048;28;19916;-76
2022/03/01 02:02:09;;;;;;;;;;;9.90;88.70;;;;;;5077914;28;19912;-76
2022/03/01 02:04:34;;;;;;;;;;;9.90;88.70;;;;;;5075843;28;19915;-76
2022/03/01 02:07:00;;;;;;;;;;;9.90;88.60;;;;;;5077394;28;19917;-76
2022/03/01 02:09:26;;;;;;;;;;;9.90;88.50;;;;;;5077987;28;20329;-76
2022/03/01 02:11:51;;;;;;;;;;;9.90;88.30;;;;;;5059808;28;20268;-76
2022/03/01 02:14:17;;;;;;;;;;;9.90;88.10;;;;;;5077774;28;19934;-76
2022/03/01 02:16:43;;;;;;;;;;;9.90;88.10;;;;;;5077642;28;19909;-76
2022/03/01 02:19:11;;;;;;;;;;;9.90;88.30;;;;;;5077781;28;20410;-76
2022/03/01 02:21:36;;;;;;;;;;;9.90;88.80;;;;;;5077611;28;19965;-76
2022/03/01 02:24:02;;;;;;;;;;;9.90;89.40;;;;;;5075743;28;19966;-76
2022/03/01 02:26:28;;;;;;;;;;;9.80;89.80;;;;;;5077687;28;19920;-76
2022/03/01 02:28:53;;;;;;;;;;;9.90;90.00;;;;;;5077729;28;19951;-76
2022/03/01 02:31:19;;;;;;;;;;;9.90;90.20;;;;;;5077604;28;19908;-76
2022/03/01 02:33:44;;;;;;;;;;;9.80;90.30;;;;;;5077440;28;19916;-76
2022/03/01 02:36:10;;;;;;;;;;;9.80;90.50;;;;;;5077232;28;19909;-76
2022/03/01 02:38:36;;;;;;;;;;;9.80;90.50;;;;;;5077887;28;19908;-76
2022/03/01 02:41:01;;;;;;;;;;;9.80;90.50;;;;;;5077106;28;19961;-76
2022/03/01 02:43:27;;;;;;;;;;;9.70;90.30;;;;;;5075264;28;19921;-76
2022/03/01 02:45:53;;;;;;;;;;;9.70;90.50;;;;;;5048084;28;19917;-76
2022/03/01 02:48:18;;;;;;;;;;;9.60;90.40;;;;;;5077387;28;19971;-76
2022/03/01 02:50:44;;;;;;;;;;;9.60;90.20;;;;;;5077284;28;19981;-76
2022/03/01 02:53:09;;;;;;;;;;;9.60;90.20;;;;;;5081160;28;19997;-76
2022/03/01 02:55:35;;;;;;;;;;;9.60;90.10;;;;;;5063257;28;19947;-76
2022/03/01 02:58:01;;;;;;;;;;;9.60;90.20;;;;;;5081603;28;19909;-76
2022/03/01 03:00:27;;;;;;;;;;;9.60;90.30;;;;;;5081061;28;20264;-76
2022/03/01 03:02:53;;;;;;;;;;;9.60;90.40;;;;;;5079507;28;20045;-76
2022/03/01 03:05:19;;;;;;;;;;;9.60;90.80;;;;;;5080863;28;19913;-76
2022/03/01 03:07:44;;;;;;;;;;;9.60;91.10;;;;;;5081614;28;20014;-76
2022/03/01 03:10:11;;;;;;;;;;;9.60;91.10;;;;;;5080569;28;19995;-76
2022/03/01 03:12:37;;;;;;;;;;;9.60;90.90;;;;;;5081232;28;20003;-76
2022/03/01 03:15:04;;;;;;;;;;;9.60;90.80;;;;;;5080974;28;19955;-76
2022/03/01 03:17:29;;;;;;;;;;;9.60;90.60;;;;;;5081305;28;20454;-76
2022/03/01 03:19:55;;;;;;;;;;;9.60;90.50;;;;;;5080908;28;19956;-76
2022/03/01 03:22:21;;;;;;;;;;;9.60;90.30;;;;;;5080773;28;20397;-76
2022/03/01 03:24:46;;;;;;;;;;;9.60;90.20;;;;;;5078837;28;19908;-76
2022/03/01 03:27:12;;;;;;;;;;;9.60;90.30;;;;;;5080790;28;20014;-76
2022/03/01 03:29:37;;;;;;;;;;;9.60;90.60;;;;;;5080757;28;19917;-76
2022/03/01 03:32:03;;;;;;;;;;;9.60;90.70;;;;;;5080352;28;19909;-76
2022/03/01 03:34:29;;;;;;;;;;;9.60;90.80;;;;;;5080556;28;19913;-76
2022/03/01 03:36:55;;;;;;;;;;;9.60;91.00;;;;;;5080351;28;19963;-76
2022/03/01 03:39:21;;;;;;;;;;;9.60;90.60;;;;;;5080360;28;19913;-76
2022/03/01 03:41:47;;;;;;;;;;;9.60;90.40;;;;;;5080676;28;19909;-76
2022/03/01 03:44:12;;;;;;;;;;;9.60;90.50;;;;;;5066839;28;19920;-76
2022/03/01 03:46:38;;;;;;;;;;;9.60;90.30;;;;;;5079001;28;19931;-76
2022/03/01 03:49:04;;;;;;;;;;;9.60;90.10;;;;;;5079176;28;20401;-76
2022/03/01 03:51:29;;;;;;;;;;;9.70;90.00;;;;;;5078770;28;20410;-76
2022/03/01 03:53:55;;;;;;;;;;;9.70;90.00;;;;;;5078917;28;19959;-76
2022/03/01 03:56:21;;;;;;;;;;;9.70;89.80;;;;;;5079270;28;19916;-76
2022/03/01 03:58:46;;;;;;;;;;;9.70;90.00;;;;;;5079120;28;19912;-76
2022/03/01 04:01:12;;;;;;;;;;;9.70;90.20;;;;;;5078974;28;19972;-76
2022/03/01 04:03:38;;;;;;;;;;;9.70;90.70;;;;;;5076549;28;20371;-76
2022/03/01 04:06:04;;;;;;;;;;;9.70;90.50;;;;;;5078707;28;20710;-76
2022/03/01 04:08:29;;;;;;;;;;;9.70;90.30;;;;;;5079044;28;19916;-76
2022/03/01 04:10:56;;;;;;;;;;;9.70;90.30;;;;;;5078560;28;20376;-76
2022/03/01 04:13:23;;;;;;;;;;;9.70;90.40;;;;;;5078599;28;19947;-76
2022/03/01 04:15:48;;;;;;;;;;;9.70;90.60;;;;;;5078970;28;20390;-76
2022/03/01 04:18:14;;;;;;;;;;;9.70;90.80;;;;;;5078942;28;19934;-76
2022/03/01 04:20:40;;;;;;;;;;;9.70;90.80;;;;;;5078559;28;19908;-76
2022/03/01 04:23:05;;;;;;;;;;;9.70;90.80;;;;;;5076915;28;19908;-76
2022/03/01 04:25:31;;;;;;;;;;;9.70;90.70;;;;;;5070226;28;19908;-76
2022/03/01 04:27:57;;;;;;;;;;;9.70;90.70;;;;;;5060638;28;19908;-76
2022/03/01 04:30:22;;;;;;;;;;;9.70;90.70;;;;;;5078828;28;20455;-76
2022/03/01 04:32:50;;;;;;;;;;;9.70;90.80;;;;;;5078239;28;19927;-76
2022/03/01 04:35:15;;;;;;;;;;;9.70;91.00;;;;;;5078452;28;19908;-76
2022/03/01 04:37:42;;;;;;;;;;;9.70;91.20;;;;;;5078418;28;19962;-76
2022/03/01 04:40:09;;;;;;;;;;;9.70;91.20;;;;;;5078284;28;19915;-76
2022/03/01 04:42:34;;;;;;;;;;;9.70;91.20;;;;;;5077496;28;19971;-76
2022/03/01 04:45:00;;;;;;;;;;;9.70;91.20;;;;;;5001309;28;2013899;-76
2022/03/01 04:47:26;;;;;;;;;;;9.70;91.30;;;;;;5079406;28;19917;-76
2022/03/01 04:49:52;;;;;;;;;;;9.70;91.40;;;;;;5079419;28;20000;-76
2022/03/01 04:52:17;;;;;;;;;;;9.70;91.50;;;;;;5078537;28;20318;-76
2022/03/01 04:54:43;;;;;;;;;;;9.70;91.50;;;;;;5079230;28;19908;-76
2022/03/01 04:57:09;;;;;;;;;;;9.70;91.60;;;;;;5079338;28;19915;-76
2022/03/01 04:59:35;;;;;;;;;;;9.70;91.60;;;;;;5079241;28;19908;-76
2022/03/01 05:02:01;;;;;;;;;;;9.70;91.70;;;;;;5079013;28;20545;-76
2022/03/01 05:04:26;;;;;;;;;;;9.70;91.70;;;;;;5076915;28;19909;-76
2022/03/01 05:06:52;;;;;;;;;;;9.70;91.80;;;;;;5078345;28;19913;-76
2022/03/01 05:09:20;;;;;;;;;;;9.60;91.90;;;;;;5061264;28;19934;-76
2022/03/01 05:11:47;;;;;;;;;;;9.70;91.80;;;;;;5078460;28;19915;-76
2022/03/01 05:14:13;;;;;;;;;;;9.60;91.90;;;;;;5060049;28;19995;-76
2022/03/01 05:16:38;;;;;;;;;;;9.70;91.90;;;;;;5078590;28;20005;-77
2022/03/01 05:19:04;;;;;;;;;;;9.70;91.90;;;;;;5078816;28;19970;-76
2022/03/01 05:21:30;;;;;;;;;;;9.70;92.00;;;;;;5078311;28;19958;-76
2022/03/01 05:23:56;;;;;;;;;;;9.70;92.00;;;;;;5076910;28;19909;-76
2022/03/01 05:26:21;;;;;;;;;;;9.70;92.00;;;;;;5064198;28;19908;-76
2022/03/01 05:28:47;;;;;;;;;;;9.70;92.00;;;;;;5078779;28;19908;-76
2022/03/01 05:31:13;;;;;;;;;;;9.70;92.00;;;;;;5079940;28;20294;-76
2022/03/01 05:33:38;;;;;;;;;;;9.70;92.00;;;;;;5078031;28;19920;-76
2022/03/01 05:36:04;;;;;;;;;;;9.70;92.00;;;;;;5077984;28;19908;-76
2022/03/01 05:38:30;;;;;;;;;;;9.70;92.10;;;;;;5078596;28;19909;-76
2022/03/01 05:40:55;;;;;;;;;;;9.70;92.10;;;;;;5077843;28;19975;-76
2022/03/01 05:43:21;;;;;;;;;;;9.70;92.20;;;;;;5076032;28;19909;-76
2022/03/01 05:45:46;;;;;;;;;;;9.70;92.50;;;;;;5064624;28;19917;-76
2022/03/01 05:48:12;;;;;;;;;;;9.70;92.40;;;;;;5078480;28;19983;-76
2022/03/01 05:50:38;;;;;;;;;;;9.70;92.40;;;;;;5077726;28;19952;-76
2022/03/01 05:53:03;;;;;;;;;;;9.60;92.50;;;;;;5077591;28;19912;-76
2022/03/01 05:55:29;;;;;;;;;;;9.70;92.60;;;;;;5077911;28;19908;-76
2022/03/01 05:57:55;;;;;;;;;;;9.60;92.60;;;;;;5078527;28;19983;-76
2022/03/01 06:00:21;;;;;;;;;;;9.60;92.70;;;;;;5078058;28;19909;-76
2022/03/01 06:02:47;;;;;;;;;;;9.60;92.60;;;;;;5078080;28;20490;-76
2022/03/01 06:05:14;;;;;;;;;;;9.70;92.70;;;;;;5077465;28;19977;-75
2022/03/01 06:07:40;;;;;;;;;;;9.60;92.70;;;;;;5078285;28;19908;-76
2022/03/01 06:10:06;;;;;;;;;;;9.60;92.50;;;;;;5077840;28;19950;-76
2022/03/01 06:12:31;;;;;;;;;;;9.70;92.40;;;;;;5078000;28;19912;-75
2022/03/01 06:14:57;;;;;;;;;;;9.70;92.40;;;;;;5077707;28;19916;-76
2022/03/01 06:17:23;;;;;;;;;;;9.70;92.40;;;;;;5078216;28;19909;-72
2022/03/01 06:19:48;;;;;;;;;;;9.70;92.40;;;;;;5077494;28;19920;-72
2022/03/01 06:22:14;;;;;;;;;;;9.70;92.50;;;;;;5077783;28;19932;-72
2022/03/01 06:24:41;;;;;;;;;;;9.70;92.70;;;;;;5077471;28;20294;-72
2022/03/01 06:27:07;;;;;;;;;;;9.70;92.50;;;;;;5077965;28;19909;-72
2022/03/01 06:29:32;;;;;;;;;;;9.70;92.50;;;;;;5077732;28;19915;-72
2022/03/01 06:31:58;;;;;;;;;;;9.70;92.50;;;;;;5078038;28;19912;-72
2022/03/01 06:34:24;;;;;;;;;;;9.70;92.50;;;;;;5077472;28;19912;-73
2022/03/01 06:36:49;;;;;;;;;;;9.80;92.60;;;;;;5077782;28;20367;-73
2022/03/01 06:39:15;;;;;;;;;;;9.80;92.70;;;;;;5077345;28;19912;-75
2022/03/01 06:41:41;;;;;;;;;;;9.80;92.50;;;;;;5078009;28;19923;-74
2022/03/01 06:44:06;;;;;;;;;;;9.80;92.50;;;;;;5055308;28;19927;-74
2022/03/01 06:46:32;;;;;;;;;;;9.80;92.60;;;;;;5045261;28;19939;-74
2022/03/01 06:48:58;;;;;;;;;;;9.80;92.40;;;;;;5057751;28;19913;-74
2022/03/01 06:51:24;;;;;;;;;;;9.80;92.50;;;;;;5057398;28;19956;-72
2022/03/01 06:53:50;;;;;;;;;;;9.80;92.50;;;;;;5057309;28;19913;-77
2022/03/01 06:56:15;;;;;;;;;;;9.80;92.40;;;;;;5057220;28;19908;-76
2022/03/01 06:58:41;;;;;;;;;;;9.90;92.40;;;;;;5056046;28;19909;-75
2022/03/01 07:01:07;;;;;;;;;;;9.90;92.30;;;;;;5057623;28;19916;-75
2022/03/01 07:03:34;;;;;;;;;;;9.90;92.30;;;;;;5051587;28;19909;-76
2022/03/01 07:06:00;;;;;;;;;;;9.90;92.30;;;;;;5055041;28;19931;-75
2022/03/01 07:08:25;;;;;;;;;;;9.90;92.40;;;;;;5056282;28;19909;-75
2022/03/01 07:10:52;;;;;;;;;;;9.90;92.40;;;;;;5057377;28;19952;-75
2022/03/01 07:13:18;;;;;;;;;;;9.90;92.50;;;;;;5057258;28;19917;-75
2022/03/01 07:15:43;;;;;;;;;;;9.90;92.50;;;;;;5057677;28;19959;-76
2022/03/01 07:18:09;;;;;;;;;;;9.90;92.70;;;;;;5057152;28;19909;-75
2022/03/01 07:20:35;;;;;;;;;;;9.90;92.70;;;;;;5057179;28;19912;-76
2022/03/01 07:23:01;;;;;;;;;;;10.00;92.80;;;;;;5057061;28;19908;-75
2022/03/01 07:25:27;;;;;;;;;;;9.90;92.80;;;;;;5057630;28;19924;-75
2022/03/01 07:27:54;;;;;;;;;;;9.90;93.20;;;;;;5055702;28;20374;-76
2022/03/01 07:30:20;;;;;;;;;;;9.90;92.90;;;;;;5057459;28;19909;-75
2022/03/01 07:32:46;;;;;;;;;;;10.00;93.10;;;;;;5056865;28;19963;-76
2022/03/01 07:35:12;;;;;;;;;;;10.00;93.20;;;;;;5055825;28;19959;-75
2022/03/01 07:37:38;;;;;;;;;;;10.00;93.20;;;;;;5058736;28;19909;-76
2022/03/01 07:40:14;;;;;;;;;;;10.00;93.30;;;;;;5059270;28;20395;-76
2022/03/01 07:42:41;;;;;;;;;;;10.00;93.40;;;;;;5060639;28;19909;-76
2022/03/01 07:45:06;;;;;;;;;;;10.00;93.40;;;;;;5066459;28;20400;-77
2022/03/01 07:47:32;;;;;;;;;;;10.00;93.40;;;;;;5076134;28;19944;-74
2022/03/01 07:49:58;;;;;;;;;;;10.00;93.40;;;;;;5080738;28;19919;-74
2022/03/01 07:52:24;;;;;;;;;;;10.00;93.40;;;;;;5080237;28;19939;-77
2022/03/01 07:54:49;;;;;;;;;;;10.10;93.40;;;;;;5080558;28;20421;-77
2022/03/01 07:57:15;;;;;;;;;;;10.10;93.40;;;;;;5062562;28;20364;-77
2022/03/01 07:59:41;;;;;;;;;;;10.10;93.30;;;;;;5080758;28;20326;-77
2022/03/01 08:02:07;;;;;;;;;;;10.20;93.40;;;;;;5062307;28;19908;-74
2022/03/01 08:04:33;;;;;;;;;;;10.20;93.40;;;;;;5080256;28;19955;-74
2022/03/01 08:06:58;;;;;;;;;;;10.20;93.40;;;;;;5080049;28;19913;-74
2022/03/01 08:09:24;;;;;;;;;;;10.30;93.50;;;;;;5080484;28;19912;-77
2022/03/01 08:11:49;;;;;;;;;;;10.30;93.50;;;;;;5062267;28;19908;-74
2022/03/01 08:14:15;;;;;;;;;;;10.30;93.50;;;;;;5079989;28;19919;-74
2022/03/01 08:16:41;;;;;;;;;;;10.40;93.50;;;;;;5080110;28;19999;-74
2022/03/01 08:19:06;;;;;;;;;;;10.50;93.60;;;;;;5080169;28;19908;-74
2022/03/01 08:21:32;;;;;;;;;;;10.50;93.60;;;;;;5061658;28;19908;-76
2022/03/01 08:23:58;;;;;;;;;;;10.50;93.50;;;;;;5079984;28;19912;-74
2022/03/01 08:26:24;;;;;;;;;;;10.50;93.50;;;;;;5079915;28;20003;-74
2022/03/01 08:28:49;;;;;;;;;;;10.60;93.50;;;;;;5062193;28;19908;-74
2022/03/01 08:31:15;;;;;;;;;;;10.60;93.40;;;;;;5079765;28;19930;-74
2022/03/01 08:33:41;;;;;;;;;;;10.60;93.50;;;;;;5079839;28;19967;-77
2022/03/01 08:36:08;;;;;;;;;;;10.60;93.50;;;;;;5079419;28;19912;-77
2022/03/01 08:38:33;;;;;;;;;;;10.60;93.40;;;;;;5079798;28;19916;-77
2022/03/01 08:40:59;;;;;;;;;;;10.60;93.50;;;;;;5061252;28;19909;-74
2022/03/01 08:43:25;;;;;;;;;;;10.60;93.60;;;;;;5079910;28;20282;-74
2022/03/01 08:45:50;;;;;;;;;;;10.60;93.60;;;;;;5066060;28;19921;-74
2022/03/01 08:48:16;;;;;;;;;;;10.60;93.60;;;;;;5078880;28;19908;-74
2022/03/01 08:50:42;;;;;;;;;;;10.70;94.00;;;;;;5078882;28;19909;-74
2022/03/01 08:53:08;;;;;;;;;;;10.70;93.80;;;;;;5079423;28;19912;-77
2022/03/01 08:55:34;;;;;;;;;;;10.70;93.70;;;;;;5079196;28;19909;-77
2022/03/01 08:57:59;;;;;;;;;;;10.70;93.60;;;;;;5079576;28;19908;-77
2022/03/01 09:00:26;;;;;;;;;;;10.70;93.60;;;;;;5079416;28;20294;-77
2022/03/01 09:02:51;;;;;;;;;;;10.80;93.60;;;;;;5079131;28;19959;-77
2022/03/01 09:05:17;;;;;;;;;;;10.80;93.50;;;;;;5078788;28;19908;-77
2022/03/01 09:07:43;;;;;;;;;;;10.80;93.60;;;;;;5061697;28;20765;-77
2022/03/01 09:10:09;;;;;;;;;;;10.90;93.60;;;;;;5079019;28;20011;-77
2022/03/01 09:12:34;;;;;;;;;;;10.90;93.50;;;;;;5078991;28;19909;-76
2022/03/01 09:15:00;;;;;;;;;;;11.00;93.50;;;;;;5078909;28;19908;-76
2022/03/01 09:17:26;;;;;;;;;;;11.00;93.30;;;;;;5079067;28;19909;-77
2022/03/01 09:19:51;;;;;;;;;;;11.00;93.40;;;;;;5078595;28;19916;-79
2022/03/01 09:22:17;;;;;;;;;;;11.00;93.30;;;;;;5078732;28;19971;-81
2022/03/01 09:24:44;;;;;;;;;;;11.10;93.40;;;;;;5078441;28;19908;-81
2022/03/01 09:27:09;;;;;;;;;;;11.10;93.30;;;;;;5060745;28;20011;-81
2022/03/01 09:29:35;;;;;;;;;;;11.20;93.30;;;;;;5060637;28;19956;-81
2022/03/01 09:32:01;;;;;;;;;;;11.30;93.30;;;;;;5060418;28;19908;-81
2022/03/01 09:34:27;;;;;;;;;;;11.30;93.40;;;;;;5077534;28;19916;-78
2022/03/01 09:36:53;;;;;;;;;;;11.40;93.40;;;;;;5078140;28;19970;-78
2022/03/01 09:39:18;;;;;;;;;;;11.40;93.20;;;;;;5077934;28;19919;-79
2022/03/01 09:41:44;;;;;;;;;;;11.50;93.20;;;;;;5060516;28;20314;-79
2022/03/01 09:44:10;;;;;;;;;;;11.50;93.10;;;;;;5076768;28;19920;-79
2022/03/01 09:46:38;;;;;;;;;;;11.60;93.10;;;;;;5070488;28;19908;-79
2022/03/01 09:49:05;;;;;;;;;;;11.70;93.10;;;;;;5072398;28;19952;-81
2022/03/01 09:51:31;;;;;;;;;;;11.70;93.10;;;;;;5077343;28;19915;-81
2022/03/01 09:53:57;;;;;;;;;;;11.70;92.90;;;;;;5077859;28;19919;-81
2022/03/01 09:56:23;;;;;;;;;;;11.70;92.80;;;;;;5077999;28;19909;-82
2022/03/01 09:58:49;;;;;;;;;;;11.70;92.70;;;;;;5077875;28;19971;-81
2022/03/01 10:01:16;;;;;;;;;;;11.70;92.60;;;;;;5059762;28;19930;-82
2022/03/01 10:03:48;;;;;;;;;;;11.80;92.60;;;;;;5077712;28;20363;-80
2022/03/01 10:06:14;;;;;;;;;;;11.80;92.60;;;;;;5077622;28;19912;-82
2022/03/01 10:08:40;;;;;;;;;;;11.80;92.60;;;;;;5077674;28;19908;-85
2022/03/01 10:11:06;;;;;;;;;;;11.90;92.50;;;;;;5077831;28;20382;-84
2022/03/01 10:13:33;;;;;;;;;;;11.90;92.50;;;;;;5077665;28;19961;-84
2022/03/01 10:16:02;;;;;;;;;;;12.00;92.60;;;;;;5077874;28;19912;-83
2022/03/01 10:18:30;;;;;;;;;;;12.00;92.40;;;;;;5077526;28;19974;-84
2022/03/01 10:21:00;;;;;;;;;;;12.10;92.30;;;;;;5077606;28;19916;-86
2022/03/01 10:23:26;;;;;;;;;;;12.20;92.30;;;;;;5059618;28;19912;-83
2022/03/01 10:25:52;;;;;;;;;;;12.30;92.50;;;;;;5077702;28;19989;-84
2022/03/01 10:28:30;;;;;;;;;;;12.30;92.30;;;;;;5077487;28;20391;-84
2022/03/01 10:30:56;;;;;;;;;;;12.40;92.20;;;;;;5077576;28;20287;-84
2022/03/01 10:33:21;;;;;;;;;;;12.40;92.10;;;;;;5059408;28;19919;-84
2022/03/01 10:35:57;;;;;;;;;;;12.50;92.10;;;;;;5077393;28;20346;-82
2022/03/01 10:38:24;;;;;;;;;;;12.50;92.00;;;;;;5059621;28;19915;-81
2022/03/01 10:41:08;;;;;;;;;;;12.50;92.10;;;;;;5077118;28;19935;-83
2022/03/01 10:43:34;;;;;;;;;;;12.60;92.20;;;;;;5077413;28;19995;-82
2022/03/01 10:46:06;;;;;;;;;;;12.60;92.10;;;;;;5063993;28;19943;-83
2022/03/01 10:48:37;;;;;;;;;;;12.60;92.00;;;;;;5077503;28;19995;-82
2022/03/01 10:51:08;;;;;;;;;;;12.60;92.10;;;;;;5077078;28;20260;-83
2022/03/01 10:53:37;;;;;;;;;;;12.70;92.00;;;;;;5077415;28;19912;-82
2022/03/01 10:56:04;;;;;;;;;;;12.70;92.10;;;;;;5077120;28;19908;-82
2022/03/01 10:58:30;;;;;;;;;;;12.80;92.10;;;;;;5077308;28;19909;-82
2022/03/01 11:00:56;;;;;;;;;;;12.90;92.10;;;;;;5077208;28;19915;-83
2022/03/01 11:03:23;;;;;;;;;;;12.90;92.00;;;;;;5077097;28;19908;-83
2022/03/01 11:05:48;;;;;;;;;;;13.00;92.00;;;;;;5077102;28;19912;-85
2022/03/01 11:08:15;;;;;;;;;;;13.00;91.80;;;;;;5077187;28;20000;-81
2022/03/01 11:10:41;;;;;;;;;;;13.10;91.90;;;;;;5077303;28;20363;-80
2022/03/01 11:13:07;;;;;;;;;;;13.10;91.70;;;;;;5061661;28;19919;-84
2022/03/01 11:15:38;;;;;;;;;;;13.10;91.60;;;;;;5081415;28;20290;-79
2022/03/01 11:18:09;;;;;;;;;;;13.10;91.50;;;;;;5081331;28;19908;-78
2022/03/01 11:20:40;;;;;;;;;;;13.10;91.50;;;;;;5080794;28;20390;-83
2022/03/01 11:23:08;;;;;;;;;;;13.10;91.50;;;;;;5080884;28;20409;-83
2022/03/01 11:25:47;;;;;;;;;;;13.20;91.40;;;;;;5080853;28;19999;-82
2022/03/01 11:28:13;;;;;;;;;;;13.20;91.30;;;;;;5080847;28;19913;-82
2022/03/01 11:30:43;;;;;;;;;;;13.20;91.20;;;;;;5080874;28;20374;-83
2022/03/01 11:33:08;;;;;;;;;;;13.20;91.10;;;;;;5080484;28;19987;-86
2022/03/01 11:35:36;;;;;;;;;;;13.20;91.00;;;;;;5080712;28;19930;-83
2022/03/01 11:38:07;;;;;;;;;;;13.20;91.00;;;;;;5080504;28;19908;-85
2022/03/01 11:40:37;;;;;;;;;;;13.20;90.80;;;;;;5080171;28;19916;-85
2022/03/01 11:43:06;;;;;;;;;;;13.20;90.70;;;;;;5080726;28;19909;-85
2022/03/01 11:45:33;;;;;;;;;;;13.20;90.70;;;;;;5067672;28;19974;-86
2022/03/01 11:48:06;;;;;;;;;;;13.20;90.70;;;;;;5061960;28;19912;-85
2022/03/01 11:50:32;;;;;;;;;;;13.30;90.70;;;;;;5079945;28;19908;-85
2022/03/01 11:53:06;;;;;;;;;;;13.20;90.60;;;;;;5079873;28;19913;-84
2022/03/01 11:55:40;;;;;;;;;;;13.20;90.50;;;;;;5080156;28;19939;-86
2022/03/01 11:58:06;;;;;;;;;;;13.20;90.40;;;;;;5080330;28;19954;-85
2022/03/01 12:00:33;;;;;;;;;;;13.20;90.40;;;;;;5080273;28;19913;-83
2022/03/01 12:03:00;;;;;;;;;;;13.20;90.30;;;;;;5080125;28;20444;-84
2022/03/01 12:05:26;;;;;;;;;;;13.20;90.20;;;;;;5079800;28;19915;-84
2022/03/01 12:07:52;;;;;;;;;;;13.20;90.20;;;;;;5062241;28;19908;-84
2022/03/01 12:10:22;;;;;;;;;;;13.20;90.10;;;;;;5079939;28;20380;-84
2022/03/01 12:12:48;;;;;;;;;;;13.20;90.10;;;;;;5080037;28;20356;-84
2022/03/01 12:15:25;;;;;;;;;;;13.10;90.00;;;;;;5062177;28;19947;-84
2022/03/01 12:17:51;;;;;;;;;;;13.10;90.00;;;;;;5080003;28;20381;-87
2022/03/01 12:20:17;;;;;;;;;;;13.10;90.10;;;;;;5079651;28;19913;-83
2022/03/01 12:22:59;;;;;;;;;;;13.20;90.10;;;;;;5079388;28;19958;-88
2022/03/01 12:25:31;;;;;;;;;;;13.20;90.10;;;;;;5079832;28;19909;-85
2022/03/01 12:27:56;;;;;;;;;;;13.20;90.10;;;;;;5079737;28;19915;-85
2022/03/01 12:30:24;;;;;;;;;;;13.30;90.00;;;;;;5079899;28;19909;-85
2022/03/01 12:32:50;;;;;;;;;;;13.30;90.00;;;;;;5079357;28;20010;-84
2022/03/01 12:35:16;;;;;;;;;;;13.30;89.90;;;;;;5079638;28;19916;-84
2022/03/01 12:37:42;;;;;;;;;;;13.30;89.80;;;;;;5061508;28;19909;-84
2022/03/01 12:40:08;;;;;;;;;;;13.40;89.70;;;;;;5079246;28;19999;-84
2022/03/01 12:42:35;;;;;;;;;;;13.40;89.60;;;;;;5079257;28;19909;-84
2022/03/01 12:45:01;;;;;;;;;;;13.40;89.60;;;;;;5052883;28;19932;-84
2022/03/01 12:47:27;;;;;;;;;;;13.40;89.60;;;;;;5074548;28;19912;-84
2022/03/01 12:49:54;;;;;;;;;;;13.40;89.60;;;;;;5061192;28;20031;-84
2022/03/01 12:52:21;;;;;;;;;;;13.50;89.80;;;;;;5079246;28;19959;-84
2022/03/01 12:54:49;;;;;;;;;;;13.50;89.80;;;;;;5079094;28;19913;-85
2022/03/01 12:57:15;;;;;;;;;;;13.50;89.80;;;;;;5079251;28;19915;-84
2022/03/01 12:59:41;;;;;;;;;;;13.50;89.60;;;;;;5079182;28;19931;-84
2022/03/01 13:02:07;;;;;;;;;;;13.60;89.50;;;;;;5079038;28;19953;-84
2022/03/01 13:04:38;;;;;;;;;;;13.60;89.50;;;;;;5078645;28;19915;-85
2022/03/01 13:07:04;;;;;;;;;;;13.60;89.50;;;;;;5078832;28;20303;-84
2022/03/01 13:09:30;;;;;;;;;;;13.60;89.30;;;;;;5079003;28;19915;-82
2022/03/01 13:11:56;;;;;;;;;;;13.60;89.20;;;;;;5078980;28;19909;-82
2022/03/01 13:14:22;;;;;;;;;;;13.60;89.30;;;;;;5078820;28;19912;-84
2022/03/01 13:16:49;;;;;;;;;;;13.60;89.10;;;;;;5078580;28;20386;-84
2022/03/01 13:19:17;;;;;;;;;;;13.60;89.00;;;;;;5078873;28;19958;-84
2022/03/01 13:21:50;;;;;;;;;;;13.60;89.70;;;;;;5078394;28;19908;-83
2022/03/01 13:24:16;;;;;;;;;;;13.60;89.00;;;;;;5078564;28;20390;-82
2022/03/01 13:26:42;;;;;;;;;;;13.60;89.20;;;;;;5078473;28;19908;-83
2022/03/01 13:29:09;;;;;;;;;;;13.70;89.40;;;;;;5060707;28;19908;-81
2022/03/01 13:31:35;;;;;;;;;;;13.70;89.50;;;;;;5078518;28;20299;-82
2022/03/01 13:34:01;;;;;;;;;;;13.80;89.80;;;;;;5078103;28;19912;-81
2022/03/01 13:36:28;;;;;;;;;;;13.90;89.90;;;;;;5059821;28;19909;-81
2022/03/01 13:39:08;;;;;;;;;;;14.00;90.00;;;;;;5078204;28;19908;-82
2022/03/01 13:41:35;;;;;;;;;;;14.20;90.00;;;;;;5067323;28;19991;-80
2022/03/01 13:44:15;;;;;;;;;;;14.30;89.60;;;;;;5077859;28;20008;-80
2022/03/01 13:46:51;;;;;;;;;;;14.40;89.20;;;;;;5067069;28;20012;-80
2022/03/01 13:49:23;;;;;;;;;;;14.60;88.80;;;;;;5078206;28;19909;-79
2022/03/01 13:51:49;;;;;;;;;;;14.70;88.30;;;;;;5077793;28;20351;-80
2022/03/01 13:54:15;;;;;;;;;;;14.70;87.80;;;;;;5062076;28;20070;-80
2022/03/01 13:56:46;;;;;;;;;;;14.70;87.10;;;;;;5078154;28;20313;-82
2022/03/01 13:59:18;;;;;;;;;;;14.70;86.60;;;;;;5059960;28;20004;-81
2022/03/01 14:01:50;;;;;;;;;;;14.70;86.20;;;;;;5060284;28;19957;-80
2022/03/01 14:04:22;;;;;;;;;;;14.60;86.30;;;;;;5074338;28;20346;-80
2022/03/01 14:06:49;;;;;;;;;;;14.60;86.50;;;;;;5077538;28;19939;-81
2022/03/01 14:09:14;;;;;;;;;;;14.60;86.50;;;;;;5078107;28;19909;-81
2022/03/01 14:11:40;;;;;;;;;;;14.60;86.50;;;;;;5077799;28;19954;-80
2022/03/01 14:14:15;;;;;;;;;;;14.70;86.70;;;;;;5078024;28;19919;-82
2022/03/01 14:16:44;;;;;;;;;;;14.60;86.20;;;;;;5077590;28;19912;-84
2022/03/01 14:19:10;;;;;;;;;;;14.70;85.90;;;;;;5077725;28;19935;-84